Airfield :
LOGIN :

Register | Disclaimer

   EN    FR    IT 

 










Legend :    VFR   Marginal VFR   IFR   Intensive IFR   Very Intensive IFR
Visi :
Ceiling :
>= 8 km
>= 3000ft
5 to 8 km
1000 to 3000 ft
1500m to 5 km
500 to 1000 ft
800 to 1500m
200 to 500 ft
< 800m
< 200 ft
Symbols :   Thunderstorms  Fog  Heavy snow  Heavy precipitations  Wind > 20 kt
SIGMETs :     Misc.  Thunderstorms  Icing  Turbulence  Mountain Waves  Volcanic Ashes







- Airport Elevation : 56 ft
- IATA code : BZR
- Download approach charts


LFMU - Beziers / Vias

CURRENT METAR :
  • 200530Z AUTO 32007KT CAVOK 08/05 Q1021 NOSIG

EXPIRED METARs :
  • 200500Z AUTO VRB03KT CAVOK 09/05 Q1021 NOSIG
  • 200430Z AUTO 31005KT 280V350 CAVOK 08/05 Q1021 NOSIG
  • 200400Z AUTO 31005KT CAVOK 07/05 Q1021 NOSIG
  • 200330Z AUTO VRB02KT CAVOK 09/05 Q1022 NOSIG
  • 200300Z AUTO 00000KT CAVOK 09/06 Q1022 NOSIG

TAF TAF LFMU
Valid from the 20 at 03:00 until the 21 at 03:00 UTC


200200Z 2003/2103 32006KT CAVOK
BECMG 2011/2015 20010KT
BECMG 2019/2023 VRB05KT
ATIS : +33 4 67 90 88 88
No reported NOTAMs for that airfield.



MET'MAP, your aeronautical weather chart ! - Copyright ORBIFLY December 2007 - Disclaimer

ORBIFLY MET'MAP TEAM :

Programming & Development : Alexandra Zaïnal
Concept & Development : Baudouin d'Aumeries
Co-Development & Prog : Marc-Olivier Méhu
Technical & hardware support : Manuel Goepfert

Contact : metmap@orbifly.com




SOURCES & CREDITS :

   NOAA